createdAt,value
2024-01-11T04:39:39.179Z,24.98
2024-01-11T04:42:42.370Z,24.35
2024-01-11T04:45:45.090Z,27.42
2024-01-11T04:48:50.111Z,25.02
2024-01-11T04:51:52.708Z,32.45
2024-01-11T04:54:55.767Z,24.67
2024-01-11T04:57:58.561Z,27.92
2024-01-11T05:01:01.687Z,29.67
2024-01-11T05:04:04.594Z,30.42
2024-01-11T05:07:07.418Z,27.35
2024-01-11T05:10:12.657Z,25.33
2024-01-11T05:13:15.556Z,28.80
2024-01-11T05:16:28.893Z,27.50
2024-01-11T05:19:31.754Z,27.45
2024-01-11T05:22:34.666Z,27.08
2024-01-11T05:25:37.901Z,28.83
2024-01-11T05:28:43.227Z,26.67
2024-01-11T05:31:46.888Z,24.92
2024-01-11T05:37:52.123Z,22.65
2024-01-11T05:40:55.100Z,22.60
2024-01-11T05:43:58.252Z,27.98
2024-01-11T05:47:00.769Z,25.17
2024-01-11T05:50:04.050Z,25.92
2024-01-11T05:53:07.083Z,25.02
2024-01-11T05:56:10.951Z,23.20
2024-01-11T05:59:13.734Z,26.65
2024-01-11T06:02:16.563Z,23.95
2024-01-11T06:05:19.406Z,23.15
2024-01-11T06:08:25.362Z,26.87
2024-01-11T06:11:29.351Z,26.60
2024-01-11T06:17:35.247Z,20.90
2024-01-11T06:20:37.899Z,25.17
2024-01-11T06:23:40.686Z,27.90
2024-01-11T06:26:43.485Z,30.40
2024-01-11T06:29:47.017Z,25.25
2024-01-11T06:32:49.761Z,25.02
2024-01-11T06:35:53.014Z,22.42
2024-01-11T06:38:55.819Z,22.80
2024-01-11T06:41:58.798Z,21.98
2024-01-11T06:45:02.325Z,20.48
2024-01-11T06:48:05.798Z,25.15
2024-01-11T06:51:09.226Z,23.25
2024-01-11T06:54:12.285Z,23.42
2024-01-11T06:57:15.949Z,25.80
2024-01-11T07:00:19.179Z,27.13
2024-01-11T07:03:22.073Z,22.62
2024-01-11T07:06:25.318Z,21.25
2024-01-11T07:09:28.025Z,23.77
2024-01-11T07:12:30.833Z,23.27
2024-01-11T07:15:33.557Z,28.45
2024-01-11T07:18:36.637Z,27.05
2024-01-11T07:21:39.127Z,25.23
2024-01-11T07:24:42.272Z,24.83
2024-01-11T07:27:44.919Z,20.37
2024-01-11T07:30:48.005Z,33.85
2024-01-11T07:39:56.744Z,26.25
2024-01-11T07:43:00.460Z,26.77
2024-01-11T07:46:04.629Z,28.23
2024-01-11T07:49:07.928Z,23.30
2024-01-11T07:52:10.926Z,25.30
2024-01-11T07:55:14.335Z,28.60
2024-01-11T08:01:20.800Z,26.75
2024-01-11T08:04:23.595Z,24.65
2024-01-11T08:07:27.386Z,33.80
2024-01-11T08:10:34.024Z,23.30
2024-01-11T08:13:38.982Z,28.65
2024-01-11T08:16:41.853Z,31.27
2024-01-11T08:19:44.702Z,28.67
2024-01-11T08:22:48.244Z,34.88
2024-01-11T08:25:50.729Z,30.15
2024-01-11T08:28:54.771Z,27.00
2024-01-11T08:31:57.623Z,31.65
2024-01-11T08:35:00.714Z,27.15
2024-01-11T08:38:04.315Z,32.28
2024-01-11T08:41:07.843Z,28.95
2024-01-11T08:44:10.577Z,32.45
2024-01-11T08:47:13.675Z,29.40
2024-01-11T08:50:18.417Z,28.42
2024-01-11T08:53:22.796Z,31.67
2024-01-11T08:56:26.587Z,24.70
2024-01-11T08:59:29.995Z,26.08
2024-01-11T09:02:32.911Z,28.08
2024-01-11T09:05:35.923Z,44.75
2024-01-11T09:08:38.423Z,23.00
2024-01-11T09:11:41.681Z,29.37
2024-01-11T09:14:44.806Z,26.77
2024-01-11T09:17:47.931Z,33.10
2024-01-11T09:20:50.995Z,30.48
2024-01-11T09:23:53.822Z,19.50
2024-01-11T09:26:56.839Z,26.20
2024-01-11T09:29:59.846Z,32.25
2024-01-11T09:33:02.678Z,21.43
2024-01-11T09:36:06.070Z,20.92
2024-01-11T09:39:09.500Z,23.85
2024-01-11T09:42:13.151Z,18.80
2024-01-11T09:45:17.978Z,20.05
2024-01-11T09:48:22.602Z,19.80
2024-01-11T09:51:27.005Z,21.37
2024-01-11T09:54:29.760Z,24.02
2024-01-11T09:57:36.021Z,20.30
2024-01-11T10:00:39.798Z,22.05
2024-01-11T10:06:52.295Z,21.27
2024-01-11T10:09:55.858Z,19.17
2024-01-11T10:12:58.627Z,18.95
2024-01-11T10:16:11.077Z,15.38
2024-01-11T10:19:16.981Z,13.32
2024-01-11T10:22:23.039Z,17.33
2024-01-11T10:25:28.235Z,15.88
2024-01-11T10:28:31.295Z,15.80
2024-01-11T10:31:35.957Z,16.55
2024-01-11T10:34:41.152Z,14.30
2024-01-11T10:37:47.730Z,14.40
2024-01-11T10:40:53.714Z,15.93
2024-01-11T10:43:59.082Z,15.35
2024-01-11T10:47:06.329Z,15.43
2024-01-11T10:50:11.612Z,15.30
2024-01-11T10:53:52.009Z,18.67
2024-01-11T10:56:56.631Z,15.75
2024-01-11T11:00:04.746Z,16.02
2024-01-11T11:03:08.408Z,14.65
2024-01-11T11:06:12.941Z,12.70
2024-01-11T11:09:17.213Z,15.25
2024-01-11T11:12:21.824Z,14.20
2024-01-11T11:15:25.414Z,12.82
2024-01-11T11:18:28.519Z,15.10
2024-01-11T11:21:32.094Z,18.92
2024-01-11T11:27:38.293Z,21.15
2024-01-11T11:30:43.451Z,18.35
2024-01-11T11:33:46.131Z,20.35
2024-01-11T11:36:51.304Z,20.15
2024-01-11T11:39:53.699Z,16.92
2024-01-11T11:42:57.574Z,19.37
2024-01-11T11:46:08.601Z,17.75
2024-01-11T11:49:13.191Z,19.37
2024-01-11T11:52:17.823Z,17.00
2024-01-11T11:55:23.146Z,17.30
2024-01-11T11:58:25.741Z,19.92
2024-01-11T12:01:29.379Z,18.42
2024-01-11T12:04:32.098Z,15.85
2024-01-11T12:07:34.842Z,16.58
2024-01-11T12:10:37.550Z,19.67
2024-01-11T12:13:41.328Z,15.70
2024-01-11T12:16:44.309Z,15.43
2024-01-11T12:19:47.149Z,21.23
2024-01-11T12:22:50.146Z,19.75
2024-01-11T12:25:53.192Z,17.35
2024-01-11T12:28:56.313Z,17.42
2024-01-11T12:32:02.125Z,18.42
2024-01-11T12:35:06.307Z,14.30
2024-01-11T12:38:10.472Z,19.98
2024-01-11T12:41:14.036Z,18.45
2024-01-11T12:44:18.568Z,20.25
2024-01-11T12:47:24.645Z,15.32
2024-01-11T12:50:33.993Z,22.13
2024-01-11T12:53:37.124Z,16.65
2024-01-11T12:56:46.026Z,18.58
2024-01-11T12:59:49.595Z,18.48
2024-01-11T13:02:55.079Z,18.05
2024-01-11T13:05:58.448Z,18.17
2024-01-11T13:09:02.335Z,18.12
2024-01-11T13:12:05.868Z,17.23
2024-01-11T13:15:08.711Z,17.77
2024-01-11T13:18:11.634Z,18.85
2024-01-11T13:21:14.756Z,18.43
2024-01-11T13:24:17.766Z,17.70
2024-01-11T13:27:20.487Z,16.73
2024-01-11T13:30:23.191Z,20.43
2024-01-11T13:33:25.922Z,22.10
2024-01-11T13:36:29.013Z,14.80
2024-01-11T13:39:31.552Z,16.33
2024-01-11T13:42:34.268Z,19.73
2024-01-11T13:45:37.868Z,20.33
2024-01-11T13:48:41.188Z,19.48
2024-01-11T13:51:53.351Z,14.63
2024-01-11T13:55:01.486Z,26.65
2024-01-11T13:58:04.864Z,20.58
2024-01-11T14:01:08.805Z,19.73
2024-01-11T14:04:11.837Z,22.50
2024-01-11T14:07:17.115Z,19.75
2024-01-11T14:10:20.267Z,24.27
2024-01-11T14:13:23.012Z,21.77
2024-01-11T14:16:28.090Z,19.50
2024-01-11T14:19:30.812Z,18.80
2024-01-11T14:22:33.883Z,22.83
2024-01-11T14:25:36.649Z,25.33
2024-01-11T14:28:43.684Z,23.80
2024-01-11T14:31:46.811Z,28.20
2024-01-11T14:34:50.451Z,22.60
2024-01-11T14:37:54.366Z,26.67
2024-01-11T14:40:57.832Z,21.50
2024-01-11T14:44:01.267Z,20.12
2024-01-11T14:47:04.993Z,19.17
2024-01-11T14:53:15.226Z,21.42
2024-01-11T14:56:18.171Z,23.67
2024-01-11T14:59:21.640Z,20.52
2024-01-11T15:02:24.106Z,17.87
2024-01-11T15:05:27.220Z,19.58
2024-01-11T15:08:30.716Z,16.70
2024-01-11T15:11:37.170Z,17.92
2024-01-11T15:14:42.044Z,20.25
2024-01-11T15:17:45.887Z,19.73
2024-01-11T15:20:48.804Z,22.05
2024-01-11T15:23:51.687Z,22.40
2024-01-11T15:26:54.897Z,19.10
2024-01-11T15:29:58.156Z,23.12
2024-01-11T15:33:02.300Z,22.97
2024-01-11T15:36:06.306Z,23.45
2024-01-11T15:39:20.436Z,23.33
2024-01-11T15:42:29.635Z,25.12
2024-01-11T15:45:34.443Z,25.75
2024-01-11T15:48:37.773Z,25.88
2024-01-11T15:51:40.322Z,25.85
2024-01-11T15:54:43.013Z,23.30
2024-01-11T15:57:45.431Z,23.67
2024-01-11T16:00:48.771Z,24.42
2024-01-11T16:03:53.330Z,23.73
2024-01-11T16:06:56.332Z,22.90
2024-01-11T16:09:59.661Z,27.70
2024-01-11T16:13:03.232Z,26.42
2024-01-11T16:16:06.229Z,27.25
2024-01-11T16:19:08.772Z,29.17
2024-01-11T16:22:11.781Z,23.67
2024-01-11T16:25:14.658Z,27.10
2024-01-11T16:28:17.386Z,23.70
2024-01-11T16:31:20.622Z,20.15
2024-01-11T16:34:23.450Z,23.15
2024-01-11T16:37:25.958Z,22.40
2024-01-11T16:40:29.524Z,24.42
2024-01-11T16:43:52.797Z,26.75
2024-01-11T16:46:55.647Z,21.73
